Terminal Aerodrome Forecast
Issued by NWS

Home | Current Version | Previous Version | Text Only | Print | Product List | Glossary On
Versions: 1 2 3 4 5 6 7 8 9 10 11 12 13 14 15 16
000
FTUS44 KJAN 191300 AAB
TAFGTR
TAF AMD
KGTR 191357Z 1914/2012 33003KT P6SM SKC
     FM191800 01012G17KT P6SM FEW250
     FM201000 14003KT P6SM SKC=

USA.gov is the U.S. government's official web portal to all federal, state and local government web resources and services.